Time;durP1;ratioP1;P1;durP2;ratioP2;P2;SDS_P1;SDS_P2;PMS_P1;PMS_P2;Temp;Humidity;BMP_temperature;BMP_pressure;BME280_temperature;BME280_humidity;BME280_pressure;Samples;Min_cycle;Max_cycle;Signal;HPM_P1;HPM_P2
2021/11/08 00:01:58;;;;;;;60.13;5.80;;;;;;;;;;5016682;28;20480;-86
2021/11/08 00:04:23;;;;;;;37.65;4.78;;;;;;;;;;5015744;28;20022;-85
2021/11/08 00:06:51;;;;;;;54.78;6.10;;;;;;;;;;4998705;28;20087;-85
2021/11/08 00:09:16;;;;;;;56.85;7.00;;;;;;;;;;5016295;28;20386;-85
2021/11/08 00:11:41;;;;;;;52.50;7.60;;;;;;;;;;5016637;28;20018;-85
2021/11/08 00:14:10;;;;;;;57.05;7.63;;;;;;;;;;5016480;28;20029;-85
2021/11/08 00:21:36;;;;;;;63.65;7.95;;;;;;;;;;5016373;28;20018;-85
2021/11/08 00:24:02;;;;;;;66.00;7.97;;;;;;;;;;5016050;28;20060;-85
2021/11/08 00:26:27;;;;;;;56.70;7.90;;;;;;;;;;5015770;28;20682;-85
2021/11/08 00:28:52;;;;;;;58.10;6.85;;;;;;;;;;5015974;28;20029;-85
2021/11/08 00:31:18;;;;;;;57.85;6.25;;;;;;;;;;4998060;28;20022;-85
2021/11/08 00:33:44;;;;;;;52.10;7.63;;;;;;;;;;5015885;28;20554;-86
2021/11/08 00:36:09;;;;;;;65.32;9.05;;;;;;;;;;5015140;28;20467;-86
2021/11/08 00:38:34;;;;;;;70.85;8.43;;;;;;;;;;4997527;28;20466;-85
2021/11/08 00:41:00;;;;;;;56.83;7.50;;;;;;;;;;4997694;28;20425;-86
2021/11/08 00:43:25;;;;;;;61.05;7.03;;;;;;;;;;4997838;28;20063;-85
2021/11/08 00:45:51;;;;;;;48.17;6.85;;;;;;;;;;5015245;28;20725;-85
2021/11/08 00:48:19;;;;;;;60.63;7.22;;;;;;;;;;4997657;28;20018;-86
2021/11/08 00:50:45;;;;;;;53.00;7.40;;;;;;;;;;5014476;28;20014;-85
2021/11/08 00:53:11;;;;;;;44.90;6.82;;;;;;;;;;4997889;28;20033;-85
2021/11/08 00:55:38;;;;;;;51.47;6.30;;;;;;;;;;4997603;28;20018;-86
2021/11/08 00:58:04;;;;;;;43.92;6.90;;;;;;;;;;4997440;28;20076;-86
2021/11/08 01:00:31;;;;;;;43.78;6.15;;;;;;;;;;4997766;28;20470;-85
2021/11/08 01:02:59;;;;;;;67.95;8.93;;;;;;;;;;4999863;28;20796;-86
2021/11/08 01:05:25;;;;;;;47.42;6.20;;;;;;;;;;4998323;28;20010;-85
2021/11/08 01:07:50;;;;;;;54.08;7.18;;;;;;;;;;4997615;28;20018;-86
2021/11/08 01:10:17;;;;;;;46.20;8.38;;;;;;;;;;5015320;28;20037;-85
2021/11/08 01:12:43;;;;;;;41.10;5.72;;;;;;;;;;5015189;28;20486;-86
2021/11/08 01:15:09;;;;;;;59.78;6.20;;;;;;;;;;5014958;28;20022;-85
2021/11/08 01:17:35;;;;;;;47.20;6.47;;;;;;;;;;5014713;28;20057;-85
2021/11/08 01:20:01;;;;;;;48.92;6.68;;;;;;;;;;5014871;28;20018;-85
2021/11/08 01:22:27;;;;;;;51.00;8.45;;;;;;;;;;5015520;28;20010;-86
2021/11/08 01:24:55;;;;;;;60.42;7.70;;;;;;;;;;5015207;28;20022;-85
2021/11/08 01:27:31;;;;;;;62.88;8.40;;;;;;;;;;4997622;28;20620;-85
2021/11/08 01:29:56;;;;;;;48.55;6.88;;;;;;;;;;4996990;28;20064;-85
2021/11/08 01:32:21;;;;;;;51.58;6.03;;;;;;;;;;5014682;28;20022;-86
2021/11/08 01:34:47;;;;;;;50.22;6.40;;;;;;;;;;4997256;28;20398;-86
2021/11/08 01:37:12;;;;;;;48.85;6.07;;;;;;;;;;4997173;28;20040;-86
2021/11/08 01:39:38;;;;;;;58.70;7.05;;;;;;;;;;5014532;28;20026;-85
2021/11/08 01:42:10;;;;;;;51.25;6.22;;;;;;;;;;5015176;28;20018;-86
2021/11/08 01:44:35;;;;;;;52.35;6.35;;;;;;;;;;5015003;28;20109;-85
2021/11/08 01:47:01;;;;;;;45.45;6.32;;;;;;;;;;4997242;28;20469;-86
2021/11/08 01:49:27;;;;;;;55.33;5.57;;;;;;;;;;4997102;28;20022;-85
2021/11/08 01:51:53;;;;;;;44.78;5.30;;;;;;;;;;5015068;28;20052;-85
2021/11/08 01:54:18;;;;;;;43.30;5.63;;;;;;;;;;4996799;28;20033;-84
2021/11/08 01:56:47;;;;;;;40.85;5.45;;;;;;;;;;4997624;28;20026;-85
2021/11/08 01:59:13;;;;;;;39.63;6.35;;;;;;;;;;5014368;28;20028;-85
2021/11/08 02:01:38;;;;;;;43.08;5.85;;;;;;;;;;5016417;28;20092;-86
2021/11/08 02:04:03;;;;;;;47.20;6.15;;;;;;;;;;5018488;28;20073;-85
2021/11/08 02:06:28;;;;;;;38.25;4.72;;;;;;;;;;5001120;28;20669;-85
2021/11/08 02:08:54;;;;;;;37.87;5.00;;;;;;;;;;5019245;28;20410;-85
2021/11/08 02:11:22;;;;;;;40.78;5.13;;;;;;;;;;5001668;28;20283;-85
2021/11/08 02:13:49;;;;;;;49.50;5.80;;;;;;;;;;5019144;28;20037;-85
2021/11/08 02:16:15;;;;;;;41.08;5.40;;;;;;;;;;5018647;28;20110;-85
2021/11/08 02:18:41;;;;;;;35.83;4.13;;;;;;;;;;5001538;28;20052;-85
2021/11/08 02:21:09;;;;;;;39.13;5.18;;;;;;;;;;5000710;28;20394;-85
2021/11/08 02:23:35;;;;;;;47.97;5.85;;;;;;;;;;5001091;28;20530;-85
2021/11/08 02:26:04;;;;;;;37.90;5.68;;;;;;;;;;5001605;28;20041;-85
2021/11/08 02:28:29;;;;;;;34.88;4.70;;;;;;;;;;5000837;28;20053;-85
2021/11/08 02:30:56;;;;;;;44.85;6.00;;;;;;;;;;5018554;28;20030;-85
2021/11/08 02:33:21;;;;;;;35.25;5.13;;;;;;;;;;5018267;28;20125;-85
2021/11/08 02:35:47;;;;;;;49.22;5.25;;;;;;;;;;5000636;28;20026;-85
2021/11/08 02:38:19;;;;;;;37.40;4.65;;;;;;;;;;5018420;28;20025;-85
2021/11/08 02:40:45;;;;;;;38.85;5.32;;;;;;;;;;4999784;28;20030;-85
2021/11/08 02:43:19;;;;;;;34.10;4.95;;;;;;;;;;5018492;28;20018;-85
2021/11/08 02:45:45;;;;;;;25.50;3.88;;;;;;;;;;5018232;28;20022;-85
2021/11/08 02:48:10;;;;;;;51.15;7.28;;;;;;;;;;5000544;28;20475;-85
2021/11/08 02:50:36;;;;;;;30.37;4.83;;;;;;;;;;5000076;28;20516;-85
2021/11/08 02:53:02;;;;;;;34.17;4.85;;;;;;;;;;5000290;28;20292;-85
2021/11/08 02:55:28;;;;;;;24.48;3.85;;;;;;;;;;5017701;28;20014;-85
2021/11/08 02:57:55;;;;;;;32.00;4.95;;;;;;;;;;4999999;28;20017;-85
2021/11/08 03:00:21;;;;;;;25.77;3.40;;;;;;;;;;5017326;28;20029;-85
2021/11/08 03:02:47;;;;;;;28.17;5.00;;;;;;;;;;5017395;28;20025;-85
2021/11/08 03:05:15;;;;;;;27.85;4.30;;;;;;;;;;5017709;28;20096;-85
2021/11/08 03:07:41;;;;;;;28.27;4.93;;;;;;;;;;5017733;28;20045;-85
2021/11/08 03:10:13;;;;;;;35.13;4.30;;;;;;;;;;5017932;28;20048;-85
2021/11/08 03:12:39;;;;;;;21.52;3.80;;;;;;;;;;4999496;28;20029;-85
2021/11/08 03:15:25;;;;;;;27.35;4.82;;;;;;;;;;4999668;28;20049;-85
2021/11/08 03:18:00;;;;;;;22.70;3.10;;;;;;;;;;4999897;28;20064;-85
2021/11/08 03:20:25;;;;;;;23.70;3.25;;;;;;;;;;5017100;28;20026;-84
2021/11/08 03:22:57;;;;;;;24.70;3.83;;;;;;;;;;4999664;28;20029;-85
2021/11/08 03:25:35;;;;;;;;;;;;;;;;;;5000087;28;20316;-85
2021/11/08 03:28:01;;;;;;;28.25;3.70;;;;;;;;;;5017252;28;19912;-85
2021/11/08 03:30:34;;;;;;;18.90;3.45;;;;;;;;;;4999095;28;20049;-85
2021/11/08 03:33:00;;;;;;;17.70;2.80;;;;;;;;;;4999519;28;20044;-85
2021/11/08 03:35:26;;;;;;;24.42;5.10;;;;;;;;;;4999182;28;20021;-84
2021/11/08 03:37:52;;;;;;;28.90;3.15;;;;;;;;;;5016989;28;20014;-86
2021/11/08 03:40:19;;;;;;;24.52;4.10;;;;;;;;;;5016882;28;20018;-85
2021/11/08 03:42:44;;;;;;;21.10;3.60;;;;;;;;;;5016491;28;20050;-85
2021/11/08 03:45:10;;;;;;;24.63;3.03;;;;;;;;;;4998912;28;20017;-85
2021/11/08 03:47:36;;;;;;;14.77;2.55;;;;;;;;;;4999241;28;20470;-85
2021/11/08 03:50:02;;;;;;;23.10;2.95;;;;;;;;;;4999125;28;20519;-85
2021/11/08 03:52:28;;;;;;;29.52;3.90;;;;;;;;;;4999010;28;20018;-86
2021/11/08 03:54:54;;;;;;;17.50;2.50;;;;;;;;;;4998619;28;20030;-85
2021/11/08 03:57:20;;;;;;;16.08;2.50;;;;;;;;;;4998615;28;20804;-85
2021/11/08 03:59:45;;;;;;;22.83;3.92;;;;;;;;;;4998339;28;20513;-85
2021/11/08 04:02:10;;;;;;;18.85;2.08;;;;;;;;;;4998253;28;20035;-85
2021/11/08 04:04:35;;;;;;;21.13;2.45;;;;;;;;;;5016597;28;20026;-86
2021/11/08 04:07:01;;;;;;;25.58;3.00;;;;;;;;;;4998499;28;20032;-85
2021/11/08 04:09:26;;;;;;;21.23;3.33;;;;;;;;;;4998300;28;20018;-85
2021/11/08 04:11:54;;;;;;;18.75;2.53;;;;;;;;;;5016068;28;20047;-86
2021/11/08 04:14:20;;;;;;;16.55;1.98;;;;;;;;;;4998964;28;20030;-85
2021/11/08 04:16:46;;;;;;;15.65;2.00;;;;;;;;;;4998340;28;20501;-86
2021/11/08 04:19:12;;;;;;;15.27;2.35;;;;;;;;;;4998275;28;20025;-86
2021/11/08 04:21:38;;;;;;;13.40;2.60;;;;;;;;;;4998226;28;20363;-86
2021/11/08 04:24:04;;;;;;;11.75;2.30;;;;;;;;;;5015932;28;20029;-85
2021/11/08 04:26:31;;;;;;;13.77;2.10;;;;;;;;;;4998430;28;20030;-85
2021/11/08 04:29:03;;;;;;;30.50;4.00;;;;;;;;;;5016259;28;20045;-86
2021/11/08 04:31:29;;;;;;;11.95;2.30;;;;;;;;;;4998187;28;20025;-85
2021/11/08 04:34:01;;;;;;;22.92;2.72;;;;;;;;;;5015954;28;20033;-86
2021/11/08 04:39:38;;;;;;;16.08;3.03;;;;;;;;;;4999318;28;19952;-85
2021/11/08 04:42:15;;;;;;;25.63;3.33;;;;;;;;;;4998086;28;20030;-86
2021/11/08 04:55:24;;;;;;;20.35;4.45;;;;;;;;;;5016320;28;20405;-85
2021/11/08 05:30:33;;;;;;;11.10;3.00;;;;;;;;;;5015377;28;20047;-85
2021/11/08 05:32:58;;;;;;;24.92;3.05;;;;;;;;;;4996368;28;20048;-85
2021/11/08 05:35:23;;;;;;;16.80;2.63;;;;;;;;;;4997198;28;20367;-85
2021/11/08 05:37:49;;;;;;;15.83;2.53;;;;;;;;;;4996650;28;20026;-85
2021/11/08 05:40:19;;;;;;;23.45;3.75;;;;;;;;;;5014547;28;20348;-85
2021/11/08 05:42:44;;;;;;;25.10;3.28;;;;;;;;;;4997250;28;20030;-85
2021/11/08 05:45:12;;;;;;;23.85;4.55;;;;;;;;;;5014585;28;20105;-85
2021/11/08 05:47:37;;;;;;;21.23;3.05;;;;;;;;;;4996952;28;20086;-85
2021/11/08 05:50:03;;;;;;;26.58;4.03;;;;;;;;;;4996800;28;20053;-85
2021/11/08 05:52:29;;;;;;;24.20;3.17;;;;;;;;;;5015154;28;20026;-85
2021/11/08 05:54:54;;;;;;;23.10;3.38;;;;;;;;;;5014893;28;20101;-85
2021/11/08 06:49:26;;;;;;;22.67;4.60;;;;;;;;;;5012947;28;20108;-85
2021/11/08 06:51:53;;;;;;;34.53;6.70;;;;;;;;;;5014230;28;20022;-85
2021/11/08 06:54:19;;;;;;;29.77;4.82;;;;;;;;;;5014470;28;20025;-85
2021/11/08 06:56:54;;;;;;;23.15;5.18;;;;;;;;;;5030853;28;20189;-85
2021/11/08 06:59:23;;;;;;;21.75;3.58;;;;;;;;;;5025322;28;20017;-85
2021/11/08 07:01:48;;;;;;;22.33;4.22;;;;;;;;;;4996432;28;20032;-85
2021/11/08 07:04:14;;;;;;;22.70;4.03;;;;;;;;;;5014880;28;20022;-85
2021/11/08 07:06:40;;;;;;;19.70;4.35;;;;;;;;;;4996552;28;20025;-85
2021/11/08 07:09:05;;;;;;;20.15;3.47;;;;;;;;;;4996639;28;20026;-85
2021/11/08 07:11:31;;;;;;;31.80;3.43;;;;;;;;;;4996296;28;20049;-85
2021/11/08 07:13:56;;;;;;;17.52;3.40;;;;;;;;;;5013967;28;20297;-85
2021/11/08 07:16:21;;;;;;;16.52;3.10;;;;;;;;;;5027439;28;20054;-84
2021/11/08 07:18:46;;;;;;;26.13;4.97;;;;;;;;;;5016197;28;20014;-85
2021/11/08 07:21:12;;;;;;;35.90;5.57;;;;;;;;;;5033995;28;20355;-85
2021/11/08 07:23:37;;;;;;;33.95;5.10;;;;;;;;;;5034172;28;20275;-85
2021/11/08 07:26:02;;;;;;;19.48;4.97;;;;;;;;;;5034267;28;20075;-86
2021/11/08 07:28:27;;;;;;;28.40;5.75;;;;;;;;;;5016850;28;20214;-85
2021/11/08 07:30:53;;;;;;;25.60;5.68;;;;;;;;;;5034648;28;20851;-85
2021/11/08 07:33:18;;;;;;;34.25;7.13;;;;;;;;;;5033035;28;20058;-86
2021/11/08 07:35:44;;;;;;;42.13;7.90;;;;;;;;;;5032538;28;20075;-85
2021/11/08 07:38:09;;;;;;;38.80;8.95;;;;;;;;;;5032628;28;20256;-85
2021/11/08 07:40:35;;;;;;;31.13;6.75;;;;;;;;;;5033031;28;20105;-85
2021/11/08 07:43:00;;;;;;;40.53;9.40;;;;;;;;;;5032549;28;20014;-86
2021/11/08 07:45:26;;;;;;;32.47;7.43;;;;;;;;;;5014564;28;20028;-86
2021/11/08 07:47:52;;;;;;;51.80;10.30;;;;;;;;;;5014286;28;20080;-86
2021/11/08 07:50:17;;;;;;;27.27;7.07;;;;;;;;;;5032294;28;20021;-85
2021/11/08 07:52:42;;;;;;;24.77;6.93;;;;;;;;;;5032284;28;20817;-86
2021/11/08 07:55:07;;;;;;;20.42;5.95;;;;;;;;;;5014284;28;20371;-86
2021/11/08 07:57:33;;;;;;;22.58;4.88;;;;;;;;;;5014159;28;20025;-85
2021/11/08 07:59:58;;;;;;;45.15;7.82;;;;;;;;;;5014024;28;20092;-85
2021/11/08 08:02:23;;;;;;;25.50;5.57;;;;;;;;;;5013878;28;20045;-85
2021/11/08 08:04:48;;;;;;;25.60;6.68;;;;;;;;;;5031638;28;20343;-85
2021/11/08 08:07:14;;;;;;;24.92;5.03;;;;;;;;;;5031859;28;20496;-86
2021/11/08 08:09:39;;;;;;;29.90;5.13;;;;;;;;;;5031544;28;20029;-86
2021/11/08 08:12:05;;;;;;;29.08;5.97;;;;;;;;;;5031155;28;20355;-86
2021/11/08 08:14:30;;;;;;;32.33;5.22;;;;;;;;;;5031499;28;20057;-86
2021/11/08 08:16:55;;;;;;;25.58;4.68;;;;;;;;;;5031389;28;20049;-85
2021/11/08 08:19:21;;;;;;;36.17;5.97;;;;;;;;;;5013988;28;20401;-86
2021/11/08 08:21:46;;;;;;;31.90;6.05;;;;;;;;;;5013840;28;20021;-85
2021/11/08 08:24:12;;;;;;;24.98;4.63;;;;;;;;;;5013466;28;20497;-86
2021/11/08 08:26:38;;;;;;;24.63;5.18;;;;;;;;;;5013827;28;20747;-85
2021/11/08 08:29:07;;;;;;;33.83;5.45;;;;;;;;;;5013371;28;20108;-86
2021/11/08 08:31:33;;;;;;;31.10;4.80;;;;;;;;;;5014012;28;20108;-85
2021/11/08 08:33:58;;;;;;;26.33;4.32;;;;;;;;;;5031416;28;20131;-85
2021/11/08 08:36:24;;;;;;;29.45;6.85;;;;;;;;;;5017471;28;20029;-84
2021/11/08 08:38:50;;;;;;;33.45;6.38;;;;;;;;;;5017562;28;20086;-84
2021/11/08 08:41:15;;;;;;;33.55;7.35;;;;;;;;;;5034430;28;20477;-85
2021/11/08 08:43:40;;;;;;;37.17;5.50;;;;;;;;;;5032800;28;20025;-85
2021/11/08 08:46:06;;;;;;;37.25;6.20;;;;;;;;;;5032669;28;20021;-85
2021/11/08 08:48:32;;;;;;;32.65;5.75;;;;;;;;;;5014793;28;20018;-85
2021/11/08 08:50:58;;;;;;;40.92;5.45;;;;;;;;;;5032209;28;20885;-85
2021/11/08 11:07:12;;;;;;;27.17;3.33;;;;;;;;;;5109348;27;20417;-84
2021/11/08 11:09:38;;;;;;;21.10;3.35;;;;;;;;;;5109833;28;20027;-86
2021/11/08 11:12:03;;;;;;;31.75;4.43;;;;;;;;;;5121825;28;20011;-85
2021/11/08 11:14:33;;;;;;;23.67;3.65;;;;;;;;;;5129484;28;20084;-86
2021/11/08 11:16:58;;;;;;;21.73;3.67;;;;;;;;;;5129106;28;20130;-86
2021/11/08 11:19:23;;;;;;;16.37;4.30;;;;;;;;;;5128770;28;20882;-86
2021/11/08 11:21:59;;;;;;;20.70;3.23;;;;;;;;;;5114334;28;20273;-86
2021/11/08 11:24:41;;;;;;;24.35;3.33;;;;;;;;;;5128394;28;20289;-86
2021/11/08 11:27:10;;;;;;;21.50;3.63;;;;;;;;;;5127504;28;20114;-86
2021/11/08 11:29:35;;;;;;;20.35;3.45;;;;;;;;;;5128135;28;20098;-86
2021/11/08 11:32:00;;;;;;;20.33;3.17;;;;;;;;;;5128146;28;20110;-86
2021/11/08 11:34:25;;;;;;;18.80;2.53;;;;;;;;;;5109688;28;20047;-87
2021/11/08 11:36:51;;;;;;;20.00;3.60;;;;;;;;;;5109489;28;20644;-87
2021/11/08 11:39:17;;;;;;;20.50;3.10;;;;;;;;;;5109619;28;20625;-87
2021/11/08 11:41:44;;;;;;;14.65;2.28;;;;;;;;;;5109442;28;20023;-87
2021/11/08 11:44:11;;;;;;;14.63;2.50;;;;;;;;;;5127911;28;20015;-86
2021/11/08 11:46:39;;;;;;;20.35;3.45;;;;;;;;;;5130194;28;20101;-86
2021/11/08 11:49:05;;;;;;;18.42;3.42;;;;;;;;;;5109448;28;20391;-87
2021/11/08 11:51:42;;;;;;;12.68;3.38;;;;;;;;;;5109274;28;20015;-87
2021/11/08 11:54:08;;;;;;;23.00;3.47;;;;;;;;;;5109267;28;20659;-87
2021/11/08 11:56:35;;;;;;;16.42;3.60;;;;;;;;;;5109221;28;20022;-87
2021/11/08 11:59:01;;;;;;;18.10;3.38;;;;;;;;;;5109220;28;20088;-87
2021/11/08 12:01:27;;;;;;;21.75;4.00;;;;;;;;;;5127704;28;20025;-87
2021/11/08 12:03:52;;;;;;;14.10;3.53;;;;;;;;;;5108829;28;20033;-87
2021/11/08 12:06:21;;;;;;;17.58;3.72;;;;;;;;;;5108690;28;20055;-87
2021/11/08 12:08:47;;;;;;;18.10;3.78;;;;;;;;;;5135589;28;20396;-87
2021/11/08 12:11:12;;;;;;;13.05;3.70;;;;;;;;;;5127444;28;20019;-87
2021/11/08 12:13:42;;;;;;;21.67;3.72;;;;;;;;;;5127523;28;20432;-87
2021/11/08 12:16:17;;;;;;;22.27;5.32;;;;;;;;;;5127457;28;20034;-87
2021/11/08 12:18:45;;;;;;;22.70;5.38;;;;;;;;;;5112981;28;20064;-87
2021/11/08 12:21:19;;;;;;;16.50;4.20;;;;;;;;;;5113529;28;20020;-87
2021/11/08 12:23:46;;;;;;;16.52;3.65;;;;;;;;;;5113731;28;20054;-87
2021/11/08 12:26:18;;;;;;;21.73;3.72;;;;;;;;;;5113761;28;20034;-87
2021/11/08 12:28:47;;;;;;;11.05;3.40;;;;;;;;;;5094819;28;20020;-87
2021/11/08 12:31:17;;;;;;;17.30;4.25;;;;;;;;;;5115354;28;20080;-87
2021/11/08 12:33:42;;;;;;;14.95;3.50;;;;;;;;;;5094974;28;20034;-87
2021/11/08 12:36:10;;;;;;;13.37;3.53;;;;;;;;;;5113560;28;20023;-88
2021/11/08 12:38:40;;;;;;;15.82;4.45;;;;;;;;;;5095185;28;20749;-87
2021/11/08 12:41:10;;;;;;;20.58;5.40;;;;;;;;;;5094881;28;20023;-87
2021/11/08 12:43:38;;;;;;;18.07;4.70;;;;;;;;;;5095275;28;20031;-87
2021/11/08 12:46:10;;;;;;;23.38;4.80;;;;;;;;;;5094759;28;20391;-87
2021/11/08 12:48:37;;;;;;;19.30;4.40;;;;;;;;;;5094754;28;20031;-87
2021/11/08 12:51:03;;;;;;;16.83;4.78;;;;;;;;;;5098226;28;19999;-87
2021/11/08 12:53:29;;;;;;;19.35;4.35;;;;;;;;;;5094716;28;20024;-87
2021/11/08 12:55:56;;;;;;;23.45;5.85;;;;;;;;;;5094444;28;20085;-87
2021/11/08 12:58:43;;;;;;;17.13;4.40;;;;;;;;;;5112792;28;20375;-87
2021/11/08 13:01:11;;;;;;;19.42;4.10;;;;;;;;;;5094527;28;20600;-87
2021/11/08 13:03:40;;;;;;;15.93;4.38;;;;;;;;;;5112857;28;20024;-87
2021/11/08 13:06:08;;;;;;;11.75;3.38;;;;;;;;;;5094123;28;20051;-87
2021/11/08 13:08:33;;;;;;;24.70;5.65;;;;;;;;;;5112712;28;20015;-87
2021/11/08 13:10:59;;;;;;;14.32;4.07;;;;;;;;;;5112551;28;20019;-87
2021/11/08 13:13:25;;;;;;;16.92;4.38;;;;;;;;;;5104030;28;20028;-87
2021/11/08 13:15:50;;;;;;;13.18;4.40;;;;;;;;;;5112555;28;20472;-87
2021/11/08 13:18:15;;;;;;;20.25;4.43;;;;;;;;;;5093930;28;20019;-87
2021/11/08 13:20:43;;;;;;;16.23;4.78;;;;;;;;;;5094134;28;20023;-87
2021/11/08 13:23:13;;;;;;;7.72;4.20;;;;;;;;;;5053752;28;20070;-87
2021/11/08 13:25:52;;;;;;;19.48;6.45;;;;;;;;;;5053543;28;20032;-87
2021/11/08 13:28:20;;;;;;;14.02;6.78;;;;;;;;;;5053136;28;20033;-87
2021/11/08 13:30:47;;;;;;;21.88;9.35;;;;;;;;;;5052928;28;20021;-87
2021/11/08 13:33:13;;;;;;;17.23;8.68;;;;;;;;;;5053434;28;20028;-87
2021/11/08 13:35:39;;;;;;;13.32;8.27;;;;;;;;;;5073398;28;20020;-87
2021/11/08 13:38:17;;;;;;;19.38;9.73;;;;;;;;;;5055443;28;20032;-87
2021/11/08 13:40:49;;;;;;;15.82;9.38;;;;;;;;;;5071540;28;20030;-87
2021/11/08 13:43:20;;;;;;;18.23;11.02;;;;;;;;;;5053560;28;20039;-87
2021/11/08 13:45:46;;;;;;;22.15;12.98;;;;;;;;;;5053141;28;20131;-87
2021/11/08 13:48:40;;;;;;;15.95;10.20;;;;;;;;;;5071301;28;20023;-87
2021/11/08 13:51:07;;;;;;;18.83;10.13;;;;;;;;;;5050591;28;20366;-87
2021/11/08 13:53:37;;;;;;;24.80;10.75;;;;;;;;;;5052529;28;20048;-87
2021/11/08 13:56:07;;;;;;;13.43;9.55;;;;;;;;;;5071064;28;20058;-87
2021/11/08 13:58:32;;;;;;;14.75;10.77;;;;;;;;;;5054112;28;20760;-87
2021/11/08 14:01:03;;;;;;;17.02;10.55;;;;;;;;;;5060849;28;20031;-87
2021/11/08 14:03:34;;;;;;;22.85;13.05;;;;;;;;;;5054174;28;20119;-87
2021/11/08 14:06:00;;;;;;;15.27;10.63;;;;;;;;;;5053729;28;20052;-87
2021/11/08 14:08:25;;;;;;;19.37;12.77;;;;;;;;;;5054229;28;20852;-87
2021/11/08 14:10:55;;;;;;;19.27;12.68;;;;;;;;;;5052927;28;20275;-87
2021/11/08 14:13:28;;;;;;;15.68;12.15;;;;;;;;;;5052479;28;20051;-87
2021/11/08 14:16:12;;;;;;;22.45;12.52;;;;;;;;;;5052683;28;20031;-87
2021/11/08 14:18:38;;;;;;;11.43;10.32;;;;;;;;;;5070511;28;20134;-87
2021/11/08 14:21:08;;;;;;;19.40;13.93;;;;;;;;;;5090347;28;20102;-87
2021/11/08 14:23:34;;;;;;;12.77;9.57;;;;;;;;;;5090646;28;20016;-87
2021/11/08 14:26:07;;;;;;;22.15;13.80;;;;;;;;;;5093041;28;20024;-87
2021/11/08 14:28:32;;;;;;;28.30;17.10;;;;;;;;;;5090735;28;20024;-87
2021/11/08 14:30:57;;;;;;;20.83;15.43;;;;;;;;;;5090926;28;20096;-87
2021/11/08 14:33:23;;;;;;;39.50;18.20;;;;;;;;;;5072397;28;20111;-87
2021/11/08 14:35:48;;;;;;;28.05;15.52;;;;;;;;;;5072216;28;20020;-87
2021/11/08 14:38:28;;;;;;;33.17;18.90;;;;;;;;;;5072263;28;20085;-87
2021/11/08 14:40:56;;;;;;;25.48;17.15;;;;;;;;;;5090565;28;20620;-87
2021/11/08 14:43:22;;;;;;;26.13;15.65;;;;;;;;;;5072512;28;20016;-87
2021/11/08 14:45:54;;;;;;;23.10;15.70;;;;;;;;;;5071952;28;20036;-87
2021/11/08 14:48:24;;;;;;;31.50;20.20;;;;;;;;;;5072231;28;20059;-87
2021/11/08 14:50:49;;;;;;;27.45;18.10;;;;;;;;;;5097656;28;20484;-87
2021/11/08 14:53:16;;;;;;;39.15;21.77;;;;;;;;;;5072150;28;20115;-87
2021/11/08 14:55:41;;;;;;;31.88;18.95;;;;;;;;;;5072160;28;20044;-87
2021/11/08 14:58:18;;;;;;;29.42;18.40;;;;;;;;;;5090500;28;20499;-87
2021/11/08 15:00:47;;;;;;;25.33;18.42;;;;;;;;;;5090382;28;20058;-87
2021/11/08 15:03:13;;;;;;;42.17;23.02;;;;;;;;;;5090217;28;20046;-87
2021/11/08 15:05:40;;;;;;;43.63;23.25;;;;;;;;;;5071686;28;20082;-87
2021/11/08 15:08:10;;;;;;;30.15;19.75;;;;;;;;;;5101900;28;20023;-87
2021/11/08 15:10:36;;;;;;;32.78;19.83;;;;;;;;;;5096132;28;20027;-87
2021/11/08 15:13:03;;;;;;;34.33;21.35;;;;;;;;;;5092139;28;20023;-87
2021/11/08 15:15:28;;;;;;;39.35;21.90;;;;;;;;;;5091529;28;20027;-87
2021/11/08 15:17:55;;;;;;;35.00;20.85;;;;;;;;;;5091939;28;20023;-87
2021/11/08 15:20:22;;;;;;;23.52;16.85;;;;;;;;;;5091992;28;20047;-87
2021/11/08 15:22:58;;;;;;;28.70;18.67;;;;;;;;;;5074439;28;20064;-87
2021/11/08 15:25:23;;;;;;;21.33;16.98;;;;;;;;;;5078285;28;20468;-87
2021/11/08 15:28:11;;;;;;;31.87;19.90;;;;;;;;;;5110510;28;20107;-87
2021/11/08 15:30:39;;;;;;;32.03;19.05;;;;;;;;;;5110745;28;20318;-88
2021/11/08 15:33:05;;;;;;;40.15;21.17;;;;;;;;;;5127210;28;20332;-87
2021/11/08 15:35:36;;;;;;;41.53;23.33;;;;;;;;;;5110384;28;20103;-87
2021/11/08 15:38:02;;;;;;;33.55;19.80;;;;;;;;;;5111776;28;20040;-87
2021/11/08 15:40:27;;;;;;;32.33;20.35;;;;;;;;;;5091873;28;20031;-87
2021/11/08 15:42:52;;;;;;;32.90;20.60;;;;;;;;;;5091800;28;20012;-87
2021/11/08 15:45:17;;;;;;;38.23;21.20;;;;;;;;;;5091700;28;20041;-87
2021/11/08 15:47:42;;;;;;;43.30;22.30;;;;;;;;;;5110128;28;20268;-87
2021/11/08 15:52:33;;;;;;;46.72;21.88;;;;;;;;;;5109998;22;20299;-87
2021/11/08 15:54:59;;;;;;;45.13;22.40;;;;;;;;;;5058012;28;20124;-87
2021/11/08 15:57:24;;;;;;;40.17;20.95;;;;;;;;;;5077773;28;20052;-87
2021/11/08 15:59:52;;;;;;;43.97;19.85;;;;;;;;;;5055110;28;20108;-87
2021/11/08 16:02:18;;;;;;;37.33;17.73;;;;;;;;;;5073316;28;20024;-87
2021/11/08 16:04:44;;;;;;;38.22;19.63;;;;;;;;;;5072919;28;20612;-87
2021/11/08 16:07:09;;;;;;;45.78;20.63;;;;;;;;;;5073184;28;20035;-87
2021/11/08 16:09:34;;;;;;;41.80;21.17;;;;;;;;;;5054836;28;20040;-87
2021/11/08 16:11:59;;;;;;;40.23;19.60;;;;;;;;;;5054955;28;20840;-87
2021/11/08 16:14:25;;;;;;;47.97;23.73;;;;;;;;;;5072936;28;20346;-87
2021/11/08 16:16:50;;;;;;;40.95;21.67;;;;;;;;;;5072985;28;20281;-87
2021/11/08 16:19:18;;;;;;;33.75;20.17;;;;;;;;;;5073051;28;20020;-87
2021/11/08 16:21:44;;;;;;;36.22;20.83;;;;;;;;;;5072598;28;20016;-87
2021/11/08 16:24:09;;;;;;;39.72;22.17;;;;;;;;;;5072706;28;20103;-87
2021/11/08 16:26:35;;;;;;;48.72;24.63;;;;;;;;;;5072536;28;20081;-87
2021/11/08 16:29:01;;;;;;;50.45;25.33;;;;;;;;;;5054959;28;20024;-87
2021/11/08 16:31:50;;;;;;;44.78;24.35;;;;;;;;;;5074199;23;20054;-87
2021/11/08 16:34:15;;;;;;;49.45;23.60;;;;;;;;;;5082499;28;20090;-87
2021/11/08 16:36:41;;;;;;;54.17;26.17;;;;;;;;;;5076543;28;20048;-87
2021/11/08 16:39:07;;;;;;;41.42;22.30;;;;;;;;;;5093515;28;20020;-87
2021/11/08 16:41:32;;;;;;;38.42;21.40;;;;;;;;;;5074895;28;20078;-87
2021/11/08 16:43:57;;;;;;;37.40;20.30;;;;;;;;;;5092757;28;20062;-87
2021/11/08 16:46:22;;;;;;;40.15;20.75;;;;;;;;;;5074325;28;20290;-87
2021/11/08 16:48:49;;;;;;;40.67;20.52;;;;;;;;;;5092626;28;20023;-87
2021/11/08 16:51:16;;;;;;;40.80;20.27;;;;;;;;;;5093061;28;20023;-87
2021/11/08 16:53:42;;;;;;;32.75;17.38;;;;;;;;;;5092667;28;20069;-87
2021/11/08 16:56:09;;;;;;;34.00;17.38;;;;;;;;;;5074454;28;20081;-87
2021/11/08 16:58:35;;;;;;;31.33;17.60;;;;;;;;;;5074079;28;20115;-88
2021/11/08 17:01:00;;;;;;;40.65;20.42;;;;;;;;;;5074119;28;20139;-88
2021/11/08 17:03:27;;;;;;;40.72;20.40;;;;;;;;;;5074372;28;20055;-87
2021/11/08 17:06:01;;;;;;;28.63;15.60;;;;;;;;;;5097448;28;20028;-87
2021/11/08 17:08:35;;;;;;;23.35;14.30;;;;;;;;;;5092471;28;20061;-87
2021/11/08 17:11:18;;;;;;;25.60;12.38;;;;;;;;;;5092509;28;20032;-87
2021/11/08 17:13:45;;;;;;;12.45;7.72;;;;;;;;;;5073636;28;20039;-87
2021/11/08 17:16:10;;;;;;;20.42;9.48;;;;;;;;;;5073983;28;20084;-87
2021/11/08 17:18:35;;;;;;;14.57;8.18;;;;;;;;;;5092190;28;20107;-87
2021/11/08 17:21:03;;;;;;;17.20;9.20;;;;;;;;;;5073829;28;20031;-87
2021/11/08 17:23:30;;;;;;;18.08;8.48;;;;;;;;;;5074137;28;20017;-87
2021/11/08 17:25:55;;;;;;;17.35;8.32;;;;;;;;;;5091830;28;20058;-87
2021/11/08 17:28:21;;;;;;;14.45;8.57;;;;;;;;;;5071820;28;20024;-87
2021/11/08 17:30:48;;;;;;;14.13;8.50;;;;;;;;;;5090624;28;20027;-87
2021/11/08 17:33:16;;;;;;;21.02;10.18;;;;;;;;;;5049139;28;20866;-86
2021/11/08 17:35:41;;;;;;;16.58;9.43;;;;;;;;;;5051459;28;20021;-87
2021/11/08 17:38:06;;;;;;;21.27;10.13;;;;;;;;;;5050572;28;20017;-87
2021/11/08 17:40:32;;;;;;;19.98;9.95;;;;;;;;;;5055189;28;20337;-87
2021/11/08 17:42:57;;;;;;;15.55;10.35;;;;;;;;;;5051507;28;20135;-87
2021/11/08 17:45:23;;;;;;;16.80;9.25;;;;;;;;;;5049775;28;20032;-86
2021/11/08 17:47:49;;;;;;;9.95;7.13;;;;;;;;;;5049960;28;20028;-85
2021/11/08 17:50:17;;;;;;;14.15;8.18;;;;;;;;;;5038079;28;20032;-86
2021/11/08 17:52:42;;;;;;;10.60;7.35;;;;;;;;;;5029740;28;20087;-85
2021/11/08 17:55:09;;;;;;;15.32;8.80;;;;;;;;;;5031275;28;20032;-85
2021/11/08 17:57:35;;;;;;;15.35;9.27;;;;;;;;;;5029959;28;20025;-85
2021/11/08 18:00:01;;;;;;;16.20;9.88;;;;;;;;;;5029748;28;20825;-86
2021/11/08 18:02:26;;;;;;;12.35;9.05;;;;;;;;;;5029820;28;20022;-86
2021/11/08 18:04:53;;;;;;;14.40;9.50;;;;;;;;;;5038175;28;20025;-86
2021/11/08 18:07:19;;;;;;;15.88;9.30;;;;;;;;;;5050691;28;20449;-86
2021/11/08 18:09:45;;;;;;;12.52;8.10;;;;;;;;;;5050792;28;20103;-86
2021/11/08 18:12:11;;;;;;;9.85;7.45;;;;;;;;;;5058140;28;20024;-86
2021/11/08 18:27:36;;;;;;;7.60;5.85;;;;;;;;;;5069983;28;20734;-86
2021/11/08 18:30:02;;;;;;;9.88;6.70;;;;;;;;;;5070445;28;20095;-86
2021/11/08 18:32:29;;;;;;;8.75;6.28;;;;;;;;;;5052335;28;20112;-87
2021/11/08 18:34:55;;;;;;;7.13;6.40;;;;;;;;;;5052236;28;20484;-87
2021/11/08 18:37:21;;;;;;;8.95;6.15;;;;;;;;;;5052275;28;20025;-87
2021/11/08 18:39:46;;;;;;;7.50;5.63;;;;;;;;;;5070260;28;20017;-86
2021/11/08 18:42:12;;;;;;;6.00;5.40;;;;;;;;;;5070456;28;20377;-87